Aérodrome :
LOGIN :

S'inscrire | Disclaimer

   EN    FR    IT 

 










Légende :    VFR   VFR Marginal   IFR   IFR Intensif   IFR Très Intensif
Visi : 
Plafond : 
>= 8 km
>= 3000ft
5 à 8 km
1000 à 3000 ft
1500m à 5 km
500 à 1000 ft
800 à 1500m
200 à 500 ft
< 800m
< 200 ft
Symboles :   Orages  Brouillard  Fortes neiges  Fortes précipitations  Vent > 20 kt
SIGMETs :   Divers  Orages  Givrage  Turbulence  Onde Orograph.  Cendres Volcan.







- Altitude de l'aérodrome : 1363 ft


ETIC - Grafenwohr Army Air Field

DERNIER METAR :
  • 260350Z AUTO 00000KT 8000 -RA BR SCT005 OVC016 02/00 A2977 RMK AO2 CIG 005V016 $

METARs EXPIRÉS :
  • 260337Z AUTO 31004KT 9000 -RA BR BKN005 OVC011 02/01 A2977 RMK AO2 CIG 005V011 BKN V FEW
  • 260335Z AUTO 31004KT 9000 -RA BR BKN005 OVC011 02/01 A2977 RMK AO2 CIG 005V011 BKN V FEW
  • 260303Z AUTO 35003KT 9000 -RA BR SCT006 OVC011 02/02 A2976 RMK AO2 CIG 006V011
  • 260250Z AUTO 00000KT 9999 -RA BR BKN006 BKN013 OVC019 03/02 A2977 RMK AO2 CIG 006V013 $
  • 260243Z AUTO 00000KT 9999 -RA BKN007 BKN013 OVC021 03/02 A2977 RMK AO2 CIG 007V013 BKN007 V FEW
  • 260233Z AUTO 00000KT 9999 -RA BKN012 OVC023 03/02 A2977 RMK AO2 CIG 012V023 BKN V SCT
  • 260206Z AUTO 00000KT 9999 -RA SCT011 OVC027 03/02 A2977 RMK AO2 CIG 011V027
  • 260159Z AUTO 00000KT 9999 -RA BKN011 OVC027 03/02 A2977 RMK AO2 RAE35DZB35E46RAB46 CIG 009V027 SLP090 P0002 T00310022 $
  • 260149Z AUTO 00000KT 9999 -RA SCT009 OVC027 03/03 A2976 RMK AO2 RAE35DZB35E46RAB46 CIG 009V027 $
  • 260134Z AUTO 00000KT 9999 -RA OVC009 03/03 A2977 RMK AO2 CIG 007V009 OVC V BKN
  • 260132Z AUTO 00000KT 9999 -RA BKN007 OVC011 03/03 A2977 RMK AO2 CIG 007V009
  • 260118Z AUTO 00000KT 9999 -RA BKN008 OVC024 03/03 A2977 RMK AO2 CIG 006V008
  • 260109Z AUTO 00000KT 9999 -RA BKN007 OVC011 03/02 A2977 RMK AO2 CIG 007V009 $

TAF AMD TAF ETIC
Valide du 26 à 03h jusqu'au 27 à 04h UTC


260336Z 2603/2704 VRB06KT 8000 -RA BKN009 OVC015 610309 611204 QNH2975INS
TEMPO 2603/2607 6000 -SN BKN008
BECMG 2609/2610 02009KT 9000 -DZ BKN020 OVC030 610409 611304 QNH2988INS
BECMG 2612/2613 03009KT 9999 NSW BKN020 610409 611304 QNH2978INS
TEMPO 2613/2617 9000 -DZ BKN014
BECMG 2622/2623 VRB06KT 8000 BR SCT015 BKN040 610409 611304 QNH2985INS TX07/2616Z TNM02/2604Z
Pas de NOTAMs connus pour ce terrain.



MET'MAP, la Météo Aéronautique d'un coup d'oeil ! - Copyright ORBIFLY Décembre 2007 - Disclaimer

ORBIFLY MET'MAP TEAM :

Programmation & Développement : Alexandra Zaïnal
Conception & Développement : Baudouin d'Aumeries
Co-Programmation & Développement : Marc-Olivier Méhu
Soutien technique & logistique : Manuel Goepfert

Contact : metmap@orbifly.com




SOURCES & CREDITS :

   NOAA